sensor_id;sensor_type;location;lat;lon;timestamp;P1;durP1;ratioP1;P2;durP2;ratioP2
6985;SDS011;3533;51.246;6.850;2022-08-26T02:11:00;8.27;;;7.77;;
6985;SDS011;3533;51.246;6.850;2022-08-26T02:13:26;9.23;;;8.63;;
6985;SDS011;3533;51.246;6.850;2022-08-26T02:15:54;8.73;;;8.23;;
6985;SDS011;3533;51.246;6.850;2022-08-26T02:18:22;8.93;;;8.33;;
6985;SDS011;3533;51.246;6.850;2022-08-26T02:20:51;8.63;;;8.13;;
6985;SDS011;3533;51.246;6.850;2022-08-26T02:23:19;8.93;;;8.43;;
6985;SDS011;3533;51.246;6.850;2022-08-26T02:25:49;9.53;;;8.97;;
6985;SDS011;3533;51.246;6.850;2022-08-26T02:28:20;8.07;;;7.60;;
6985;SDS011;3533;51.246;6.850;2022-08-26T02:30:46;9.23;;;8.73;;
6985;SDS011;3533;51.246;6.850;2022-08-26T02:33:13;8.73;;;8.20;;
6985;SDS011;3533;51.246;6.850;2022-08-26T02:35:39;9.43;;;8.77;;
6985;SDS011;3533;51.246;6.850;2022-08-26T02:38:06;8.50;;;8.10;;
6985;SDS011;3533;51.246;6.850;2022-08-26T02:40:34;8.93;;;8.43;;
6985;SDS011;3533;51.246;6.850;2022-08-26T02:43:04;8.97;;;8.37;;
6985;SDS011;3533;51.246;6.850;2022-08-26T02:45:34;8.33;;;7.93;;
6985;SDS011;3533;51.246;6.850;2022-08-26T02:48:02;9.10;;;8.57;;
6985;SDS011;3533;51.246;6.850;2022-08-26T02:50:37;8.80;;;8.30;;
6985;SDS011;3533;51.246;6.850;2022-08-26T02:53:06;8.47;;;7.97;;
6985;SDS011;3533;51.246;6.850;2022-08-26T02:55:35;8.73;;;8.23;;
6985;SDS011;3533;51.246;6.850;2022-08-26T02:58:01;8.23;;;7.57;;
6985;SDS011;3533;51.246;6.850;2022-08-26T03:00:29;7.93;;;7.40;;
6985;SDS011;3533;51.246;6.850;2022-08-26T03:02:57;7.97;;;7.47;;
6985;SDS011;3533;51.246;6.850;2022-08-26T03:05:24;7.90;;;7.50;;
6985;SDS011;3533;51.246;6.850;2022-08-26T03:07:51;8.70;;;8.20;;
6985;SDS011;3533;51.246;6.850;2022-08-26T03:10:20;8.37;;;7.90;;
6985;SDS011;3533;51.246;6.850;2022-08-26T03:12:46;9.17;;;8.57;;
6985;SDS011;3533;51.246;6.850;2022-08-26T03:15:13;8.60;;;8.10;;
6985;SDS011;3533;51.246;6.850;2022-08-26T03:17:40;8.73;;;8.23;;
6985;SDS011;3533;51.246;6.850;2022-08-26T03:20:07;8.00;;;7.60;;
6985;SDS011;3533;51.246;6.850;2022-08-26T03:22:34;8.60;;;8.00;;
6985;SDS011;3533;51.246;6.850;2022-08-26T03:25:00;8.00;;;7.60;;
6985;SDS011;3533;51.246;6.850;2022-08-26T03:27:27;9.40;;;8.77;;
6985;SDS011;3533;51.246;6.850;2022-08-26T03:29:53;8.57;;;8.17;;
6985;SDS011;3533;51.246;6.850;2022-08-26T03:32:37;8.47;;;7.87;;
6985;SDS011;3533;51.246;6.850;2022-08-26T03:35:04;8.80;;;8.20;;
6985;SDS011;3533;51.246;6.850;2022-08-26T03:37:30;9.33;;;8.63;;
6985;SDS011;3533;51.246;6.850;2022-08-26T03:39:57;9.47;;;8.87;;
6985;SDS011;3533;51.246;6.850;2022-08-26T03:42:23;8.17;;;7.63;;
6985;SDS011;3533;51.246;6.850;2022-08-26T03:44:49;8.60;;;8.20;;
6985;SDS011;3533;51.246;6.850;2022-08-26T03:47:17;9.70;;;9.03;;
6985;SDS011;3533;51.246;6.850;2022-08-26T03:49:43;8.40;;;8.00;;
6985;SDS011;3533;51.246;6.850;2022-08-26T03:52:08;7.07;;;6.67;;
6985;SDS011;3533;51.246;6.850;2022-08-26T03:54:35;8.43;;;7.93;;
6985;SDS011;3533;51.246;6.850;2022-08-26T03:57:01;9.10;;;8.37;;
6985;SDS011;3533;51.246;6.850;2022-08-26T03:59:27;7.80;;;7.40;;
6985;SDS011;3533;51.246;6.850;2022-08-26T04:01:53;7.83;;;7.33;;
6985;SDS011;3533;51.246;6.850;2022-08-26T04:04:20;8.93;;;8.17;;
6985;SDS011;3533;51.246;6.850;2022-08-26T04:06:46;8.30;;;7.70;;
6985;SDS011;3533;51.246;6.850;2022-08-26T04:09:19;8.20;;;7.70;;
6985;SDS011;3533;51.246;6.850;2022-08-26T04:11:45;8.10;;;7.60;;
6985;SDS011;3533;51.246;6.850;2022-08-26T04:14:14;9.30;;;8.50;;
6985;SDS011;3533;51.246;6.850;2022-08-26T04:16:42;7.83;;;7.33;;
6985;SDS011;3533;51.246;6.850;2022-08-26T04:19:10;7.40;;;7.00;;
6985;SDS011;3533;51.246;6.850;2022-08-26T04:21:38;7.30;;;6.90;;
6985;SDS011;3533;51.246;6.850;2022-08-26T04:24:07;7.33;;;6.83;;
6985;SDS011;3533;51.246;6.850;2022-08-26T04:26:38;7.00;;;6.70;;
6985;SDS011;3533;51.246;6.850;2022-08-26T04:29:07;8.33;;;7.73;;
6985;SDS011;3533;51.246;6.850;2022-08-26T04:31:46;9.10;;;8.60;;
6985;SDS011;3533;51.246;6.850;2022-08-26T04:34:12;9.60;;;9.00;;
6985;SDS011;3533;51.246;6.850;2022-08-26T04:36:38;9.00;;;8.50;;
6985;SDS011;3533;51.246;6.850;2022-08-26T04:39:05;8.80;;;8.20;;
6985;SDS011;3533;51.246;6.850;2022-08-26T04:41:35;9.27;;;8.57;;
6985;SDS011;3533;51.246;6.850;2022-08-26T04:44:00;10.27;;;9.57;;
6985;SDS011;3533;51.246;6.850;2022-08-26T04:46:31;9.47;;;8.97;;
6985;SDS011;3533;51.246;6.850;2022-08-26T04:48:57;9.30;;;8.70;;
6985;SDS011;3533;51.246;6.850;2022-08-26T04:51:24;8.90;;;8.40;;
6985;SDS011;3533;51.246;6.850;2022-08-26T04:53:55;9.40;;;8.80;;
6985;SDS011;3533;51.246;6.850;2022-08-26T04:56:24;9.27;;;8.70;;
6985;SDS011;3533;51.246;6.850;2022-08-26T04:58:52;10.27;;;9.57;;
6985;SDS011;3533;51.246;6.850;2022-08-26T05:01:18;8.73;;;8.13;;
6985;SDS011;3533;51.246;6.850;2022-08-26T05:03:45;9.20;;;8.70;;
6985;SDS011;3533;51.246;6.850;2022-08-26T05:06:11;10.13;;;9.43;;
6985;SDS011;3533;51.246;6.850;2022-08-26T05:08:38;9.10;;;8.60;;
6985;SDS011;3533;51.246;6.850;2022-08-26T05:11:05;9.50;;;9.00;;
6985;SDS011;3533;51.246;6.850;2022-08-26T05:13:32;9.67;;;9.07;;
6985;SDS011;3533;51.246;6.850;2022-08-26T05:16:02;10.17;;;9.47;;
6985;SDS011;3533;51.246;6.850;2022-08-26T05:18:34;9.20;;;8.70;;
6985;SDS011;3533;51.246;6.850;2022-08-26T05:21:01;9.70;;;9.17;;
6985;SDS011;3533;51.246;6.850;2022-08-26T05:23:29;9.73;;;9.13;;
6985;SDS011;3533;51.246;6.850;2022-08-26T05:25:56;9.93;;;9.23;;
6985;SDS011;3533;51.246;6.850;2022-08-26T05:28:27;9.43;;;8.93;;
6985;SDS011;3533;51.246;6.850;2022-08-26T05:30:53;9.83;;;9.30;;
6985;SDS011;3533;51.246;6.850;2022-08-26T05:33:20;8.43;;;8.00;;
6985;SDS011;3533;51.246;6.850;2022-08-26T05:35:46;8.40;;;7.90;;
6985;SDS011;3533;51.246;6.850;2022-08-26T05:38:13;8.60;;;8.20;;
6985;SDS011;3533;51.246;6.850;2022-08-26T05:40:44;8.50;;;8.03;;
6985;SDS011;3533;51.246;6.850;2022-08-26T05:43:14;9.50;;;8.90;;
6985;SDS011;3533;51.246;6.850;2022-08-26T05:45:45;8.87;;;8.33;;
6985;SDS011;3533;51.246;6.850;2022-08-26T05:48:14;8.20;;;7.70;;
6985;SDS011;3533;51.246;6.850;2022-08-26T05:50:44;8.70;;;8.20;;
6985;SDS011;3533;51.246;6.850;2022-08-26T05:53:14;8.50;;;8.00;;
6985;SDS011;3533;51.246;6.850;2022-08-26T05:55:48;8.10;;;7.70;;
6985;SDS011;3533;51.246;6.850;2022-08-26T05:58:16;9.33;;;8.57;;
6985;SDS011;3533;51.246;6.850;2022-08-26T06:01:08;7.40;;;7.00;;
6985;SDS011;3533;51.246;6.850;2022-08-26T06:03:35;7.43;;;7.03;;
6985;SDS011;3533;51.246;6.850;2022-08-26T06:06:10;8.40;;;7.90;;
6985;SDS011;3533;51.246;6.850;2022-08-26T06:08:38;8.67;;;8.13;;
6985;SDS011;3533;51.246;6.850;2022-08-26T06:11:06;7.73;;;7.33;;
6985;SDS011;3533;51.246;6.850;2022-08-26T06:13:33;7.70;;;7.40;;
6985;SDS011;3533;51.246;6.850;2022-08-26T06:16:01;8.20;;;7.80;;
6985;SDS011;3533;51.246;6.850;2022-08-26T06:18:32;7.60;;;7.20;;
6985;SDS011;3533;51.246;6.850;2022-08-26T06:23:54;7.27;;;6.97;;
6985;SDS011;3533;51.246;6.850;2022-08-26T06:26:41;7.97;;;7.57;;
6985;SDS011;3533;51.246;6.850;2022-08-26T06:29:11;7.53;;;6.93;;
6985;SDS011;3533;51.246;6.850;2022-08-26T06:31:37;7.73;;;7.27;;
6985;SDS011;3533;51.246;6.850;2022-08-26T06:34:04;7.00;;;6.63;;
6985;SDS011;3533;51.246;6.850;2022-08-26T06:36:31;7.20;;;6.80;;
6985;SDS011;3533;51.246;6.850;2022-08-26T06:39:01;6.20;;;5.90;;
6985;SDS011;3533;51.246;6.850;2022-08-26T06:41:30;6.57;;;6.17;;
6985;SDS011;3533;51.246;6.850;2022-08-26T06:44:01;6.73;;;6.43;;
6985;SDS011;3533;51.246;6.850;2022-08-26T06:46:30;7.37;;;6.97;;
6985;SDS011;3533;51.246;6.850;2022-08-26T06:48:56;6.90;;;6.40;;
6985;SDS011;3533;51.246;6.850;2022-08-26T06:51:24;6.53;;;6.23;;
6985;SDS011;3533;51.246;6.850;2022-08-26T06:53:53;6.70;;;6.30;;
6985;SDS011;3533;51.246;6.850;2022-08-26T06:56:21;6.33;;;5.90;;
6985;SDS011;3533;51.246;6.850;2022-08-26T06:58:48;5.87;;;5.50;;
6985;SDS011;3533;51.246;6.850;2022-08-26T07:01:15;6.93;;;6.53;;
6985;SDS011;3533;51.246;6.850;2022-08-26T07:03:49;7.03;;;6.63;;
6985;SDS011;3533;51.246;6.850;2022-08-26T07:06:19;6.27;;;5.90;;
6985;SDS011;3533;51.246;6.850;2022-08-26T07:08:48;5.50;;;5.20;;
6985;SDS011;3533;51.246;6.850;2022-08-26T07:11:17;6.30;;;6.00;;
6985;SDS011;3533;51.246;6.850;2022-08-26T07:13:46;5.80;;;5.50;;
6985;SDS011;3533;51.246;6.850;2022-08-26T07:16:13;6.30;;;6.00;;
6985;SDS011;3533;51.246;6.850;2022-08-26T07:18:42;15.23;;;6.97;;
6985;SDS011;3533;51.246;6.850;2022-08-26T07:21:10;18.07;;;7.77;;
6985;SDS011;3533;51.246;6.850;2022-08-26T07:23:37;16.00;;;6.73;;
6985;SDS011;3533;51.246;6.850;2022-08-26T07:26:06;11.47;;;6.70;;
6985;SDS011;3533;51.246;6.850;2022-08-26T07:28:34;312.97;;;19.13;;
6985;SDS011;3533;51.246;6.850;2022-08-26T07:31:06;32.00;;;8.27;;
6985;SDS011;3533;51.246;6.850;2022-08-26T07:33:32;35.93;;;8.30;;
6985;SDS011;3533;51.246;6.850;2022-08-26T07:36:00;19.50;;;6.63;;
6985;SDS011;3533;51.246;6.850;2022-08-26T07:38:27;34.83;;;7.33;;
6985;SDS011;3533;51.246;6.850;2022-08-26T07:40:53;8.00;;;6.00;;
6985;SDS011;3533;51.246;6.850;2022-08-26T08:19:28;33.47;;;7.47;;
6985;SDS011;3533;51.246;6.850;2022-08-26T08:21:54;75.60;;;17.37;;
6985;SDS011;3533;51.246;6.850;2022-08-26T08:24:20;39.73;;;12.20;;
6985;SDS011;3533;51.246;6.850;2022-08-26T08:26:46;10.90;;;7.10;;
6985;SDS011;3533;51.246;6.850;2022-08-26T08:29:12;32.93;;;11.63;;
6985;SDS011;3533;51.246;6.850;2022-08-26T08:31:38;15.37;;;8.30;;
6985;SDS011;3533;51.246;6.850;2022-08-26T08:34:05;21.07;;;9.07;;
6985;SDS011;3533;51.246;6.850;2022-08-26T08:36:32;15.13;;;7.30;;
6985;SDS011;3533;51.246;6.850;2022-08-26T08:38:58;13.63;;;7.10;;
6985;SDS011;3533;51.246;6.850;2022-08-26T08:41:30;13.07;;;7.30;;
6985;SDS011;3533;51.246;6.850;2022-08-26T08:44:01;9.57;;;6.70;;
6985;SDS011;3533;51.246;6.850;2022-08-26T08:46:28;11.77;;;6.87;;
6985;SDS011;3533;51.246;6.850;2022-08-26T08:48:55;7.70;;;5.33;;
6985;SDS011;3533;51.246;6.850;2022-08-26T08:54:14;7.20;;;5.30;;
6985;SDS011;3533;51.246;6.850;2022-08-26T08:59:54;5.10;;;3.87;;
6985;SDS011;3533;51.246;6.850;2022-08-26T09:02:28;4.33;;;3.93;;
6985;SDS011;3533;51.246;6.850;2022-08-26T09:07:56;4.27;;;3.97;;
6985;SDS011;3533;51.246;6.850;2022-08-26T09:10:30;3.97;;;3.67;;
6985;SDS011;3533;51.246;6.850;2022-08-26T09:13:33;5.03;;;4.70;;
6985;SDS011;3533;51.246;6.850;2022-08-26T09:21:38;4.20;;;3.80;;
6985;SDS011;3533;51.246;6.850;2022-08-26T09:24:03;5.33;;;4.27;;
6985;SDS011;3533;51.246;6.850;2022-08-26T09:29:13;4.20;;;3.90;;
6985;SDS011;3533;51.246;6.850;2022-08-26T09:31:47;4.50;;;3.73;;
6985;SDS011;3533;51.246;6.850;2022-08-26T09:34:15;4.50;;;3.80;;
6985;SDS011;3533;51.246;6.850;2022-08-26T09:36:45;3.60;;;3.30;;
6985;SDS011;3533;51.246;6.850;2022-08-26T09:44:26;6.20;;;3.37;;
6985;SDS011;3533;51.246;6.850;2022-08-26T09:46:53;4.37;;;3.60;;
6985;SDS011;3533;51.246;6.850;2022-08-26T09:49:35;4.13;;;3.83;;
6985;SDS011;3533;51.246;6.850;2022-08-26T09:52:08;3.03;;;2.83;;
6985;SDS011;3533;51.246;6.850;2022-08-26T09:54:37;3.27;;;3.07;;
6985;SDS011;3533;51.246;6.850;2022-08-26T09:57:24;3.80;;;3.60;;
6985;SDS011;3533;51.246;6.850;2022-08-26T09:59:51;5.07;;;3.33;;
6985;SDS011;3533;51.246;6.850;2022-08-26T10:02:33;3.20;;;3.00;;
6985;SDS011;3533;51.246;6.850;2022-08-26T10:05:04;3.33;;;3.13;;
6985;SDS011;3533;51.246;6.850;2022-08-26T10:07:37;3.63;;;3.33;;
6985;SDS011;3533;51.246;6.850;2022-08-26T10:10:39;2.83;;;2.73;;
6985;SDS011;3533;51.246;6.850;2022-08-26T10:13:04;3.37;;;3.17;;
6985;SDS011;3533;51.246;6.850;2022-08-26T10:16:16;4.13;;;3.83;;
6985;SDS011;3533;51.246;6.850;2022-08-26T10:22:10;3.23;;;3.03;;
6985;SDS011;3533;51.246;6.850;2022-08-26T10:24:46;3.97;;;3.50;;
6985;SDS011;3533;51.246;6.850;2022-08-26T10:27:18;3.27;;;3.13;;
6985;SDS011;3533;51.246;6.850;2022-08-26T10:30:05;3.00;;;2.80;;
6985;SDS011;3533;51.246;6.850;2022-08-26T10:32:39;12.50;;;4.03;;
6985;SDS011;3533;51.246;6.850;2022-08-26T10:35:06;45.23;;;5.90;;
6985;SDS011;3533;51.246;6.850;2022-08-26T10:37:36;15.63;;;4.60;;
6985;SDS011;3533;51.246;6.850;2022-08-26T10:42:57;4.50;;;4.10;;
6985;SDS011;3533;51.246;6.850;2022-08-26T10:45:31;7.73;;;4.00;;
6985;SDS011;3533;51.246;6.850;2022-08-26T10:48:06;7.53;;;3.47;;
6985;SDS011;3533;51.246;6.850;2022-08-26T10:50:36;5.20;;;3.23;;
6985;SDS011;3533;51.246;6.850;2022-08-26T10:53:16;7.10;;;3.47;;
6985;SDS011;3533;51.246;6.850;2022-08-26T10:56:07;18.63;;;4.03;;
6985;SDS011;3533;51.246;6.850;2022-08-26T10:58:58;7.00;;;4.10;;
6985;SDS011;3533;51.246;6.850;2022-08-26T11:04:29;8.33;;;4.00;;
6985;SDS011;3533;51.246;6.850;2022-08-26T11:07:31;3.63;;;3.33;;
6985;SDS011;3533;51.246;6.850;2022-08-26T11:10:03;4.23;;;3.57;;
6985;SDS011;3533;51.246;6.850;2022-08-26T11:23:57;3.63;;;3.43;;
6985;SDS011;3533;51.246;6.850;2022-08-26T11:28:33;5.30;;;3.20;;
6985;SDS011;3533;51.246;6.850;2022-08-26T11:33:51;4.33;;;3.27;;
6985;SDS011;3533;51.246;6.850;2022-08-26T11:39:14;4.70;;;3.07;;
6985;SDS011;3533;51.246;6.850;2022-08-26T11:41:46;4.63;;;2.80;;
6985;SDS011;3533;51.246;6.850;2022-08-26T11:44:17;5.00;;;3.40;;
6985;SDS011;3533;51.246;6.850;2022-08-26T11:46:52;4.90;;;3.57;;
6985;SDS011;3533;51.246;6.850;2022-08-26T11:49:25;3.60;;;2.57;;
6985;SDS011;3533;51.246;6.850;2022-08-26T11:51:52;7.37;;;2.93;;
6985;SDS011;3533;51.246;6.850;2022-08-26T11:54:39;6.30;;;3.10;;
6985;SDS011;3533;51.246;6.850;2022-08-26T11:57:22;2.60;;;2.50;;
6985;SDS011;3533;51.246;6.850;2022-08-26T11:59:48;2.60;;;2.40;;
6985;SDS011;3533;51.246;6.850;2022-08-26T12:02:14;7.10;;;3.00;;
6985;SDS011;3533;51.246;6.850;2022-08-26T12:04:42;3.10;;;2.80;;
6985;SDS011;3533;51.246;6.850;2022-08-26T12:07:12;6.43;;;3.33;;
6985;SDS011;3533;51.246;6.850;2022-08-26T12:09:49;4.30;;;2.60;;
6985;SDS011;3533;51.246;6.850;2022-08-26T12:12:24;3.57;;;2.30;;
6985;SDS011;3533;51.246;6.850;2022-08-26T12:17:31;3.10;;;2.90;;
6985;SDS011;3533;51.246;6.850;2022-08-26T12:19:57;3.17;;;2.87;;
6985;SDS011;3533;51.246;6.850;2022-08-26T12:22:25;2.77;;;2.57;;
6985;SDS011;3533;51.246;6.850;2022-08-26T12:25:00;2.80;;;2.50;;
6985;SDS011;3533;51.246;6.850;2022-08-26T12:27:30;4.50;;;2.60;;
6985;SDS011;3533;51.246;6.850;2022-08-26T12:32:36;2.47;;;2.37;;
6985;SDS011;3533;51.246;6.850;2022-08-26T12:35:14;2.57;;;2.37;;
6985;SDS011;3533;51.246;6.850;2022-08-26T12:37:42;2.50;;;2.30;;
6985;SDS011;3533;51.246;6.850;2022-08-26T12:40:24;2.10;;;2.00;;
6985;SDS011;3533;51.246;6.850;2022-08-26T12:42:49;2.17;;;2.07;;
6985;SDS011;3533;51.246;6.850;2022-08-26T12:45:29;2.30;;;2.20;;
6985;SDS011;3533;51.246;6.850;2022-08-26T12:47:55;2.13;;;2.03;;
6985;SDS011;3533;51.246;6.850;2022-08-26T12:50:27;2.60;;;2.23;;
6985;SDS011;3533;51.246;6.850;2022-08-26T12:53:20;2.13;;;2.03;;
6985;SDS011;3533;51.246;6.850;2022-08-26T12:55:56;2.63;;;2.53;;
6985;SDS011;3533;51.246;6.850;2022-08-26T12:58:42;2.40;;;2.20;;
6985;SDS011;3533;51.246;6.850;2022-08-26T13:08:40;2.33;;;2.23;;
6985;SDS011;3533;51.246;6.850;2022-08-26T13:13:42;2.03;;;1.93;;
6985;SDS011;3533;51.246;6.850;2022-08-26T13:16:09;2.03;;;1.93;;
6985;SDS011;3533;51.246;6.850;2022-08-26T13:18:35;2.00;;;1.90;;
6985;SDS011;3533;51.246;6.850;2022-08-26T13:21:06;2.57;;;2.20;;
6985;SDS011;3533;51.246;6.850;2022-08-26T13:23:35;1.87;;;1.77;;
6985;SDS011;3533;51.246;6.850;2022-08-26T13:26:00;1.80;;;1.70;;
6985;SDS011;3533;51.246;6.850;2022-08-26T13:28:26;2.43;;;2.23;;
6985;SDS011;3533;51.246;6.850;2022-08-26T13:30:51;1.87;;;1.77;;
6985;SDS011;3533;51.246;6.850;2022-08-26T13:33:17;2.20;;;2.10;;
6985;SDS011;3533;51.246;6.850;2022-08-26T13:35:43;2.23;;;2.03;;
6985;SDS011;3533;51.246;6.850;2022-08-26T13:38:09;2.00;;;1.90;;
6985;SDS011;3533;51.246;6.850;2022-08-26T13:40:39;2.13;;;2.00;;
6985;SDS011;3533;51.246;6.850;2022-08-26T13:43:07;2.10;;;2.00;;
6985;SDS011;3533;51.246;6.850;2022-08-26T13:45:33;2.00;;;1.90;;
6985;SDS011;3533;51.246;6.850;2022-08-26T13:47:58;1.87;;;1.77;;
6985;SDS011;3533;51.246;6.850;2022-08-26T13:50:24;3.50;;;1.67;;
6985;SDS011;3533;51.246;6.850;2022-08-26T13:52:50;2.20;;;2.03;;
6985;SDS011;3533;51.246;6.850;2022-08-26T13:55:15;2.10;;;1.80;;
6985;SDS011;3533;51.246;6.850;2022-08-26T13:57:41;1.70;;;1.60;;
6985;SDS011;3533;51.246;6.850;2022-08-26T14:00:06;1.90;;;1.80;;
6985;SDS011;3533;51.246;6.850;2022-08-26T14:02:33;1.80;;;1.70;;
6985;SDS011;3533;51.246;6.850;2022-08-26T14:04:59;2.03;;;1.80;;
6985;SDS011;3533;51.246;6.850;2022-08-26T14:07:25;1.97;;;1.83;;
6985;SDS011;3533;51.246;6.850;2022-08-26T14:09:50;8.77;;;2.37;;
6985;SDS011;3533;51.246;6.850;2022-08-26T14:12:16;10.20;;;2.50;;
6985;SDS011;3533;51.246;6.850;2022-08-26T14:14:42;4.63;;;2.33;;
6985;SDS011;3533;51.246;6.850;2022-08-26T14:17:08;3.13;;;1.70;;
6985;SDS011;3533;51.246;6.850;2022-08-26T14:19:33;3.07;;;2.00;;
6985;SDS011;3533;51.246;6.850;2022-08-26T14:21:59;2.30;;;1.50;;
6985;SDS011;3533;51.246;6.850;2022-08-26T14:24:25;2.17;;;1.53;;
6985;SDS011;3533;51.246;6.850;2022-08-26T14:26:51;1.80;;;1.70;;
6985;SDS011;3533;51.246;6.850;2022-08-26T14:29:16;4.60;;;1.70;;
6985;SDS011;3533;51.246;6.850;2022-08-26T14:31:42;3.20;;;2.27;;
6985;SDS011;3533;51.246;6.850;2022-08-26T14:34:08;2.60;;;1.50;;
6985;SDS011;3533;51.246;6.850;2022-08-26T14:36:37;3.80;;;1.60;;
6985;SDS011;3533;51.246;6.850;2022-08-26T14:39:04;1.93;;;1.60;;
6985;SDS011;3533;51.246;6.850;2022-08-26T14:41:32;4.67;;;1.60;;
6985;SDS011;3533;51.246;6.850;2022-08-26T14:44:03;7.50;;;2.23;;
6985;SDS011;3533;51.246;6.850;2022-08-26T14:46:39;5.43;;;1.83;;
6985;SDS011;3533;51.246;6.850;2022-08-26T14:49:10;1.53;;;1.43;;
6985;SDS011;3533;51.246;6.850;2022-08-26T14:51:37;2.50;;;2.03;;
6985;SDS011;3533;51.246;6.850;2022-08-26T14:54:04;1.53;;;1.43;;
6985;SDS011;3533;51.246;6.850;2022-08-26T14:56:39;2.23;;;1.40;;
6985;SDS011;3533;51.246;6.850;2022-08-26T14:59:22;1.70;;;1.40;;
6985;SDS011;3533;51.246;6.850;2022-08-26T15:01:50;1.60;;;1.50;;
6985;SDS011;3533;51.246;6.850;2022-08-26T15:04:17;1.60;;;1.50;;
6985;SDS011;3533;51.246;6.850;2022-08-26T15:06:43;4.13;;;1.80;;
6985;SDS011;3533;51.246;6.850;2022-08-26T15:09:09;1.60;;;1.50;;
6985;SDS011;3533;51.246;6.850;2022-08-26T15:11:35;2.33;;;2.13;;
6985;SDS011;3533;51.246;6.850;2022-08-26T15:14:01;2.83;;;1.87;;
6985;SDS011;3533;51.246;6.850;2022-08-26T15:16:26;4.60;;;2.10;;
6985;SDS011;3533;51.246;6.850;2022-08-26T15:18:53;2.03;;;1.67;;
6985;SDS011;3533;51.246;6.850;2022-08-26T15:21:19;2.10;;;1.40;;
6985;SDS011;3533;51.246;6.850;2022-08-26T15:23:45;1.90;;;1.80;;
6985;SDS011;3533;51.246;6.850;2022-08-26T15:26:12;1.93;;;1.60;;
6985;SDS011;3533;51.246;6.850;2022-08-26T15:28:38;1.80;;;1.63;;
6985;SDS011;3533;51.246;6.850;2022-08-26T15:31:05;2.90;;;1.50;;
6985;SDS011;3533;51.246;6.850;2022-08-26T15:33:32;1.83;;;1.73;;
6985;SDS011;3533;51.246;6.850;2022-08-26T15:35:58;1.70;;;1.60;;
6985;SDS011;3533;51.246;6.850;2022-08-26T15:38:29;1.87;;;1.77;;
6985;SDS011;3533;51.246;6.850;2022-08-26T15:40:56;1.83;;;1.73;;
6985;SDS011;3533;51.246;6.850;2022-08-26T15:43:23;1.50;;;1.40;;
6985;SDS011;3533;51.246;6.850;2022-08-26T15:45:50;1.70;;;1.60;;
6985;SDS011;3533;51.246;6.850;2022-08-26T15:48:16;1.90;;;1.80;;
6985;SDS011;3533;51.246;6.850;2022-08-26T15:50:53;1.70;;;1.60;;
6985;SDS011;3533;51.246;6.850;2022-08-26T15:53:20;1.70;;;1.60;;
6985;SDS011;3533;51.246;6.850;2022-08-26T15:55:46;1.87;;;1.77;;
6985;SDS011;3533;51.246;6.850;2022-08-26T15:58:12;4.13;;;1.90;;
6985;SDS011;3533;51.246;6.850;2022-08-26T16:00:38;2.07;;;1.70;;
6985;SDS011;3533;51.246;6.850;2022-08-26T16:03:04;1.93;;;1.63;;
6985;SDS011;3533;51.246;6.850;2022-08-26T16:05:31;1.80;;;1.70;;
6985;SDS011;3533;51.246;6.850;2022-08-26T16:08:00;1.70;;;1.60;;
6985;SDS011;3533;51.246;6.850;2022-08-26T16:10:27;5.83;;;1.60;;
6985;SDS011;3533;51.246;6.850;2022-08-26T16:12:53;2.00;;;1.90;;
6985;SDS011;3533;51.246;6.850;2022-08-26T16:15:18;1.60;;;1.50;;
6985;SDS011;3533;51.246;6.850;2022-08-26T16:17:45;2.50;;;1.80;;
6985;SDS011;3533;51.246;6.850;2022-08-26T16:20:11;1.80;;;1.70;;
6985;SDS011;3533;51.246;6.850;2022-08-26T16:22:37;2.00;;;1.90;;
6985;SDS011;3533;51.246;6.850;2022-08-26T16:25:02;1.53;;;1.43;;
6985;SDS011;3533;51.246;6.850;2022-08-26T16:27:28;1.97;;;1.70;;
6985;SDS011;3533;51.246;6.850;2022-08-26T16:29:54;1.80;;;1.70;;
6985;SDS011;3533;51.246;6.850;2022-08-26T16:32:20;1.60;;;1.50;;
6985;SDS011;3533;51.246;6.850;2022-08-26T16:34:46;2.00;;;1.87;;
6985;SDS011;3533;51.246;6.850;2022-08-26T16:37:12;1.60;;;1.50;;
6985;SDS011;3533;51.246;6.850;2022-08-26T16:39:37;1.80;;;1.70;;
6985;SDS011;3533;51.246;6.850;2022-08-26T16:42:03;1.60;;;1.50;;
6985;SDS011;3533;51.246;6.850;2022-08-26T16:44:29;1.57;;;1.47;;
6985;SDS011;3533;51.246;6.850;2022-08-26T16:47:08;1.87;;;1.60;;
6985;SDS011;3533;51.246;6.850;2022-08-26T16:49:37;1.60;;;1.50;;
6985;SDS011;3533;51.246;6.850;2022-08-26T16:52:03;1.70;;;1.60;;
6985;SDS011;3533;51.246;6.850;2022-08-26T16:54:28;1.70;;;1.60;;
6985;SDS011;3533;51.246;6.850;2022-08-26T16:56:55;1.70;;;1.60;;
6985;SDS011;3533;51.246;6.850;2022-08-26T16:59:20;1.70;;;1.60;;
6985;SDS011;3533;51.246;6.850;2022-08-26T17:01:47;1.80;;;1.70;;
6985;SDS011;3533;51.246;6.850;2022-08-26T17:04:13;2.40;;;1.67;;
6985;SDS011;3533;51.246;6.850;2022-08-26T17:06:39;1.80;;;1.57;;
6985;SDS011;3533;51.246;6.850;2022-08-26T17:09:05;1.70;;;1.60;;
6985;SDS011;3533;51.246;6.850;2022-08-26T17:11:30;1.97;;;1.87;;
6985;SDS011;3533;51.246;6.850;2022-08-26T17:13:56;1.50;;;1.40;;
6985;SDS011;3533;51.246;6.850;2022-08-26T17:16:22;1.47;;;1.37;;
6985;SDS011;3533;51.246;6.850;2022-08-26T17:18:48;1.97;;;1.40;;
6985;SDS011;3533;51.246;6.850;2022-08-26T17:21:13;1.70;;;1.60;;
6985;SDS011;3533;51.246;6.850;2022-08-26T17:23:40;1.90;;;1.80;;
6985;SDS011;3533;51.246;6.850;2022-08-26T17:26:07;1.90;;;1.60;;
6985;SDS011;3533;51.246;6.850;2022-08-26T17:28:33;1.73;;;1.63;;
6985;SDS011;3533;51.246;6.850;2022-08-26T17:30:59;2.00;;;1.90;;
6985;SDS011;3533;51.246;6.850;2022-08-26T17:33:26;2.67;;;1.67;;
6985;SDS011;3533;51.246;6.850;2022-08-26T17:35:52;1.60;;;1.40;;
6985;SDS011;3533;51.246;6.850;2022-08-26T17:38:18;1.80;;;1.70;;
6985;SDS011;3533;51.246;6.850;2022-08-26T17:40:45;1.57;;;1.47;;
6985;SDS011;3533;51.246;6.850;2022-08-26T17:43:10;1.70;;;1.60;;
6985;SDS011;3533;51.246;6.850;2022-08-26T17:45:37;1.97;;;1.53;;
6985;SDS011;3533;51.246;6.850;2022-08-26T17:48:04;1.93;;;1.50;;
6985;SDS011;3533;51.246;6.850;2022-08-26T17:50:30;1.50;;;1.40;;
6985;SDS011;3533;51.246;6.850;2022-08-26T17:52:56;1.50;;;1.40;;
6985;SDS011;3533;51.246;6.850;2022-08-26T17:55:22;1.53;;;1.43;;
6985;SDS011;3533;51.246;6.850;2022-08-26T17:57:47;1.30;;;1.20;;
6985;SDS011;3533;51.246;6.850;2022-08-26T18:00:14;1.50;;;1.40;;
6985;SDS011;3533;51.246;6.850;2022-08-26T18:02:43;1.60;;;1.50;;
6985;SDS011;3533;51.246;6.850;2022-08-26T18:05:10;1.70;;;1.60;;
6985;SDS011;3533;51.246;6.850;2022-08-26T18:07:37;1.70;;;1.60;;
6985;SDS011;3533;51.246;6.850;2022-08-26T18:10:03;1.47;;;1.37;;
6985;SDS011;3533;51.246;6.850;2022-08-26T18:12:33;1.43;;;1.30;;
6985;SDS011;3533;51.246;6.850;2022-08-26T18:14:59;1.40;;;1.30;;
6985;SDS011;3533;51.246;6.850;2022-08-26T18:17:25;1.47;;;1.37;;
6985;SDS011;3533;51.246;6.850;2022-08-26T18:19:50;1.60;;;1.30;;
6985;SDS011;3533;51.246;6.850;2022-08-26T18:22:16;1.33;;;1.23;;
6985;SDS011;3533;51.246;6.850;2022-08-26T18:24:42;1.40;;;1.30;;
6985;SDS011;3533;51.246;6.850;2022-08-26T18:27:07;1.60;;;1.50;;
6985;SDS011;3533;51.246;6.850;2022-08-26T18:29:33;1.63;;;1.30;;
6985;SDS011;3533;51.246;6.850;2022-08-26T18:31:59;1.50;;;1.40;;
6985;SDS011;3533;51.246;6.850;2022-08-26T18:34:24;1.53;;;1.43;;
6985;SDS011;3533;51.246;6.850;2022-08-26T18:36:50;1.80;;;1.70;;
6985;SDS011;3533;51.246;6.850;2022-08-26T18:39:16;1.77;;;1.67;;
6985;SDS011;3533;51.246;6.850;2022-08-26T18:41:47;1.40;;;1.30;;
6985;SDS011;3533;51.246;6.850;2022-08-26T18:44:15;1.60;;;1.50;;
6985;SDS011;3533;51.246;6.850;2022-08-26T18:46:43;1.57;;;1.47;;
6985;SDS011;3533;51.246;6.850;2022-08-26T18:49:10;1.40;;;1.30;;
6985;SDS011;3533;51.246;6.850;2022-08-26T18:51:37;1.30;;;1.20;;
6985;SDS011;3533;51.246;6.850;2022-08-26T18:54:04;1.50;;;1.27;;
6985;SDS011;3533;51.246;6.850;2022-08-26T18:56:32;1.47;;;1.37;;
6985;SDS011;3533;51.246;6.850;2022-08-26T18:58:59;1.60;;;1.50;;
6985;SDS011;3533;51.246;6.850;2022-08-26T19:01:26;1.40;;;1.30;;
6985;SDS011;3533;51.246;6.850;2022-08-26T19:03:53;2.30;;;1.33;;
6985;SDS011;3533;51.246;6.850;2022-08-26T19:06:21;1.67;;;1.30;;
6985;SDS011;3533;51.246;6.850;2022-08-26T19:08:47;1.40;;;1.30;;
6985;SDS011;3533;51.246;6.850;2022-08-26T19:11:13;1.80;;;1.70;;
6985;SDS011;3533;51.246;6.850;2022-08-26T19:13:40;1.47;;;1.37;;
6985;SDS011;3533;51.246;6.850;2022-08-26T19:16:06;1.33;;;1.23;;
6985;SDS011;3533;51.246;6.850;2022-08-26T19:18:37;1.87;;;1.40;;
6985;SDS011;3533;51.246;6.850;2022-08-26T19:21:03;1.50;;;1.40;;